This is the latest recevied weather packets stored in our database for station/object OE-11361. If no packets are shown the sender has not sent any weather packets the latest 10 day(s).
| Time | Temp. | Humidity | Pressure | Rain* | Wind** | Luminosity | Snow |
|---|---|---|---|---|---|---|---|
| 1788498676 | 17.22° C | 79% | 1021 hPa | 0 mm | - | 14 W/m² | - |
| 1788498304 | 17.22° C | 79% | 1021 hPa | 0 mm | - | 7 W/m² | - |
| 1788497704 | 17.22° C | 80% | 1020.9 hPa | 0 mm | - | 0 W/m² | - |
| 1788496876 | 17.22° C | 78% | 1020.9 hPa | 0 mm | - | 0 W/m² | - |
| 1788496504 | 17.22° C | 79% | 1020.9 hPa | 0 mm | - | 0 W/m² | - |
| 1788495904 | 17.22° C | 80% | 1020.8 hPa | 0 mm | - | 0 W/m² | - |
| 1788495077 | 17.22° C | 81% | 1020.8 hPa | 0 mm | - | 0 W/m² | - |
| 1788494704 | 17.22° C | 80% | 1020.8 hPa | 0 mm | - | 0 W/m² | - |
| 1788494103 | 17.78° C | 80% | 1020.8 hPa | 0 mm | - | 0 W/m² | - |
| 1788492904 | 17.78° C | 80% | 1020.8 hPa | 0 mm | - | 0 W/m² | - |
| 1788492304 | 17.78° C | 79% | 1020.8 hPa | 0 mm | - | 0 W/m² | - |
| 1788491477 | 17.78° C | 79% | 1020.9 hPa | 0 mm | - | 0 W/m² | - |
| 1788487876 | 17.78° C | 79% | 1021 hPa | 0 mm | - | 0 W/m² | - |
| 1788484277 | 17.78° C | 80% | 1021.1 hPa | 0 mm | - | 0 W/m² | - |
| 1788482477 | 17.78° C | 79% | 1021.5 hPa | 0 mm | - | 0 W/m² | - |
| 1788476104 | 18.33° C | 77% | 1021.7 hPa | 0 mm | - | 0 W/m² | - |
| 1788473478 | 18.33° C | 79% | 1021.5 hPa | 0 mm | - | 0 W/m² | - |
| 1788471678 | 18.33° C | 77% | 1021.5 hPa | 0 mm | - | 0 W/m² | - |
| 1788471304 | 18.33° C | 80% | 1021.6 hPa | 0 mm | - | 0 W/m² | - |
| 1788470704 | 18.33° C | 80% | 1021.6 hPa | 0 mm | - | 0 W/m² | - |
| 1788467104 | 18.89° C | 76% | 1021 hPa | 0 mm | - | 0 W/m² | - |
| 1788466277 | 18.89° C | 78% | 1020.9 hPa | 0 mm | - | 0 W/m² | - |
| 1788465904 | 19.44° C | 75% | 1020.8 hPa | 0 mm | - | 0 W/m² | - |
| 1788463504 | 20° C | 73% | 1020.4 hPa | 0 mm | - | 0 W/m² | - |
| 1788447904 | 25.56° C | 41% | 1018.5 hPa | 0 mm | - | 469 W/m² | - |
* Rain latest hour (hover to see other rain measurements)
** Current wind speed in m/s (hover to see current wind gust speed)